Time;durP1;ratioP1;P1;durP2;ratioP2;P2;SDS_P1;SDS_P2;PMS_P1;PMS_P2;Temp;Humidity;BMP_temperature;BMP_pressure;BME280_temperature;BME280_humidity;BME280_pressure;Samples;Min_cycle;Max_cycle;Signal;HPM_P1;HPM_P2
2023/10/06 00:01:45;;;;;;;;;;;;;;;;;;6327726;28;20373;-81
2023/10/06 00:04:45;;;;;;;;;;;;;;;;;;6328708;28;20006;-82
2023/10/06 00:07:45;;;;;;;;;;;;;;;;;;6318661;28;19916;-82
2023/10/06 00:10:45;;;;;;;;;;;;;;;;;;6312115;27;19927;-82
2023/10/06 00:14:00;;;;;;;;;;;;;;;;;;6322130;28;19937;-81
2023/10/06 00:17:00;;;;;;;;;;;;;;;;;;6339444;28;19954;-82
2023/10/06 00:20:00;;;;;;;;;;;;;;;;;;6324781;28;19916;-82
2023/10/06 00:23:05;;;;;;;;;;;;;;;;;;6311206;28;19934;-82
2023/10/06 00:26:16;;;;;;;;;;;;;;;;;;6324791;28;19934;-82
2023/10/06 00:29:21;;;;;;;;;;;;;;;;;;6330572;28;19911;-82
2023/10/06 00:32:21;;;;;;;;;;;;;;;;;;6316465;28;19916;-82
2023/10/06 00:35:30;;;;;;;;;;;;;;;;;;6321439;28;19916;-82
2023/10/06 00:38:31;;;;;;;;;;;;;;;;;;6328904;27;20398;-82
2023/10/06 00:41:34;;;;;;;;;;;;;;;;;;6329189;28;19907;-82
2023/10/06 00:44:35;;;;;;;;;;;;;;;;;;6333885;28;19922;-82
2023/10/06 00:47:38;;;;;;;;;;;;;;;;;;6312428;28;19911;-82
2023/10/06 00:50:39;;;;;;;;;;;;;;;;;;6309689;28;19918;-82
2023/10/06 00:53:39;;;;;;;;;;;;;;;;;;6323882;28;19912;-81
2023/10/06 00:56:39;;;;;;;;;;;;;;;;;;6302488;28;19920;-81
2023/10/06 00:59:41;;;;;;;;;;;;;;;;;;6284342;28;20324;-81
2023/10/06 01:02:43;;;;;;;;;;;;;;;;;;6301218;28;20019;-81
2023/10/06 01:05:46;;;;;;;;;;;;;;;;;;6294476;28;20382;-81
2023/10/06 01:08:52;;;;;;;;;;;;;;;;;;6299312;28;20000;-81
2023/10/06 01:11:54;;;;;;;;;;;;;;;;;;6310961;28;19916;-81
2023/10/06 01:15:09;;;;;;;;;;;;;;;;;;6303805;28;19912;-81
2023/10/06 01:18:19;;;;;;;;;;;;;;;;;;6314702;28;19907;-80
2023/10/06 01:21:28;;;;;;;;;;;;;;;;;;6300183;28;19912;-81
2023/10/06 01:24:29;;;;;;;;;;;;;;;;;;6315021;28;19918;-81
2023/10/06 01:27:29;;;;;;;;;;;;;;;;;;6311225;28;19954;-81
2023/10/06 01:30:29;;;;;;;;;;;;;;;;;;6305707;28;19916;-80
2023/10/06 01:33:30;;;;;;;;;;;;;;;;;;6286543;28;19908;-80
2023/10/06 01:36:30;;;;;;;;;;;;;;;;;;6305759;28;20439;-81
2023/10/06 01:39:37;;;;;;;;;;;;;;;;;;6309629;28;19912;-81
2023/10/06 01:42:37;;;;;;;;;;;;;;;;;;6276509;28;20000;-82
2023/10/06 01:45:43;;;;;;;;;;;;;;;;;;6280861;28;20237;-81
2023/10/06 01:48:43;;;;;;;;;;;;;;;;;;6309934;28;19976;-81
2023/10/06 01:51:44;;;;;;;;;;;;;;;;;;6297165;28;20294;-83
2023/10/06 01:54:45;;;;;;;;;;;;;;;;;;6306499;28;20289;-80
2023/10/06 01:57:47;;;;;;;;;;;;;;;;;;6331785;28;19924;-82
2023/10/06 02:00:48;;;;;;;;;;;;;;;;;;6321274;28;20396;-80
2023/10/06 02:03:48;;;;;;;;;;;;;;;;;;6301806;28;19919;-80
2023/10/06 02:06:48;;;;;;;;;;;;;;;;;;6300447;28;19915;-80
2023/10/06 02:09:51;;;;;;;;;;;;;;;;;;6330375;28;19916;-81
2023/10/06 02:12:51;;;;;;;;;;;;;;;;;;6318549;28;19914;-80
2023/10/06 02:15:51;;;;;;;;;;;;;;;;;;6329307;27;19908;-80
2023/10/06 02:18:53;;;;;;;;;;;;;;;;;;6340677;28;19915;-81
2023/10/06 02:21:54;;;;;;;;;;;;;;;;;;6338463;28;19943;-80
2023/10/06 02:24:54;;;;;;;;;;;;;;;;;;6318918;28;19933;-81
2023/10/06 02:27:54;;;;;;;;;;;;;;;;;;6318360;28;19955;-81
2023/10/06 02:30:55;;;;;;;;;;;;;;;;;;6304745;28;19920;-81
2023/10/06 02:33:55;;;;;;;;;;;;;;;;;;6332890;28;19912;-81
2023/10/06 02:36:55;;;;;;;;;;;;;;;;;;6332197;28;20353;-81
2023/10/06 02:39:55;;;;;;;;;;;;;;;;;;6308275;28;19919;-81
2023/10/06 02:42:56;;;;;;;;;;;;;;;;;;6307729;28;19908;-80
2023/10/06 02:46:04;;;;;;;;;;;;;;;;;;6307218;28;19909;-81
2023/10/06 02:49:08;;;;;;;;;;;;;;;;;;6308008;28;19972;-80
2023/10/06 02:52:29;;;;;;;;;;;;;;;;;;6309101;28;19943;-81
2023/10/06 02:55:33;;;;;;;;;;;;;;;;;;6320598;28;19930;-81
2023/10/06 02:58:33;;;;;;;;;;;;;;;;;;6303433;28;20010;-81
2023/10/06 03:01:38;;;;;;;;;;;;;;;;;;6324070;28;19923;-81
2023/10/06 03:04:39;;;;;;;;;;;;;;;;;;6317094;28;19908;-81
2023/10/06 03:07:39;;;;;;;;;;;;;;;;;;6319466;28;20037;-81
2023/10/06 03:10:43;;;;;;;;;;;;;;;;;;6332352;28;20020;-81
2023/10/06 03:13:43;;;;;;;;;;;;;;;;;;6299384;28;19912;-80
2023/10/06 03:16:43;;;;;;;;;;;;;;;;;;6306903;28;20271;-80
2023/10/06 03:19:44;;;;;;;;;;;;;;;;;;6333170;28;20286;-81
2023/10/06 03:22:48;;;;;;;;;;;;;;;;;;6330203;28;20417;-81
2023/10/06 03:25:52;;;;;;;;;;;;;;;;;;6327696;28;19908;-80
2023/10/06 03:28:53;;;;;;;;;;;;;;;;;;6310652;28;20366;-90
2023/10/06 03:31:56;;;;;;;;;;;;;;;;;;6309865;28;19942;-89
2023/10/06 03:34:59;;;;;;;;;;;;;;;;;;6320068;28;20660;-90
2023/10/06 03:38:27;;;;;;;;;;;;;;;;;;6312656;28;20660;-89
2023/10/06 03:41:32;;;;;;;;;;;;;;;;;;6304930;28;20310;-90
2023/10/06 03:44:33;;;;;;;;;;;;;;;;;;6330998;28;19922;-89
2023/10/06 03:47:33;;;;;;;;;;;;;;;;;;6305081;28;20358;-90
2023/10/06 03:50:33;;;;;;;;;;;;;;;;;;6323412;28;19964;-90
2023/10/06 03:53:33;;;;;;;;;;;;;;;;;;6308599;28;19915;-90
2023/10/06 03:56:33;;;;;;;;;;;;;;;;;;6329102;28;20417;-90
2023/10/06 03:59:33;;;;;;;;;;;;;;;;;;6315221;28;19916;-90
2023/10/06 04:02:40;;;;;;;;;;;;;;;;;;6322102;28;19940;-90
2023/10/06 04:05:41;;;;;;;;;;;;;;;;;;6332922;28;20004;-91
2023/10/06 04:08:44;;;;;;;;;;;;;;;;;;6324195;28;19920;-91
2023/10/06 04:11:47;;;;;;;;;;;;;;;;;;6338181;28;19920;-91
2023/10/06 04:14:47;;;;;;;;;;;;;;;;;;6320008;27;19954;-91
2023/10/06 04:17:47;;;;;;;;;;;;;;;;;;6328430;27;19912;-91
2023/10/06 04:20:47;;;;;;;;;;;;;;;;;;6341105;27;19908;-91
2023/10/06 04:23:47;;;;;;;;;;;;;;;;;;6311844;28;20603;-91
2023/10/06 04:26:47;;;;;;;;;;;;;;;;;;6307656;28;19912;-90
2023/10/06 04:29:48;;;;;;;;;;;;;;;;;;6343295;28;20304;-91
2023/10/06 04:32:48;;;;;;;;;;;;;;;;;;6342010;27;19916;-91
2023/10/06 04:36:07;;;;;;;;;;;;;;;;;;6329836;27;19919;-91
2023/10/06 04:39:11;;;;;;;;;;;;;;;;;;6349953;27;19916;-90
2023/10/06 04:42:11;;;;;;;;;;;;;;;;;;6340078;28;19930;-90
2023/10/06 04:45:15;;;;;;;;;;;;;;;;;;6335142;28;20397;-91
2023/10/06 04:48:15;;;;;;;;;;;;;;;;;;6340092;27;19920;-90
2023/10/06 04:51:16;;;;;;;;;;;;;;;;;;6339982;27;19939;-90
2023/10/06 04:54:17;;;;;;;;;;;;;;;;;;6343983;27;19951;-91
2023/10/06 04:57:17;;;;;;;;;;;;;;;;;;6324214;27;19985;-91
2023/10/06 05:00:21;;;;;;;;;;;;;;;;;;6315614;28;20007;-91
2023/10/06 05:03:22;;;;;;;;;;;;;;;;;;6337253;28;20023;-92
2023/10/06 05:06:22;;;;;;;;;;;;;;;;;;6317010;28;20293;-92
2023/10/06 05:09:22;;;;;;;;;;;;;;;;;;6337735;28;19923;-91
2023/10/06 05:12:24;;;;;;;;;;;;;;;;;;6328616;28;19912;-91
2023/10/06 05:15:26;;;;;;;;;;;;;;;;;;6328038;27;19965;-91
2023/10/06 05:18:26;;;;;;;;;;;;;;;;;;6314302;28;19912;-91
2023/10/06 05:21:27;;;;;;;;;;;;;;;;;;6306506;28;20001;-91
2023/10/06 05:24:28;;;;;;;;;;;;;;;;;;6312126;28;19915;-91
2023/10/06 05:27:28;;;;;;;;;;;;;;;;;;6313768;28;19956;-91
2023/10/06 05:30:28;;;;;;;;;;;;;;;;;;6314736;28;20354;-91
2023/10/06 05:33:28;;;;;;;;;;;;;;;;;;6334715;27;19916;-91
2023/10/06 05:36:28;;;;;;;;;;;;;;;;;;6318052;28;19922;-90
2023/10/06 05:39:30;;;;;;;;;;;;;;;;;;6333249;27;19919;-91
2023/10/06 05:42:33;;;;;;;;;;;;;;;;;;6335899;28;20012;-91
2023/10/06 05:45:33;;;;;;;;;;;;;;;;;;6317110;28;20563;-90
2023/10/06 05:48:34;;;;;;;;;;;;;;;;;;6304722;28;20381;-90
2023/10/06 05:51:38;;;;;;;;;;;;;;;;;;6312808;28;20451;-91
2023/10/06 05:54:38;;;;;;;;;;;;;;;;;;6328182;28;19916;-89
2023/10/06 05:57:48;;;;;;;;;;;;;;;;;;6310864;28;19924;-89
2023/10/06 06:00:51;;;;;;;;;;;;;;;;;;6327443;28;19918;-89
2023/10/06 06:03:53;;;;;;;;;;;;;;;;;;6307981;28;20402;-92
2023/10/06 06:06:56;;;;;;;;;;;;;;;;;;6303617;28;20255;-91
2023/10/06 06:09:58;;;;;;;;;;;;;;;;;;6330084;28;21054;-91
2023/10/06 06:12:58;;;;;;;;;;;;;;;;;;6331421;28;20430;-90
2023/10/06 06:15:59;;;;;;;;;;;;;;;;;;6333764;27;19912;-92
2023/10/06 06:18:59;;;;;;;;;;;;;;;;;;6324723;28;20002;-91
2023/10/06 06:22:02;;;;;;;;;;;;;;;;;;6317977;27;19995;-91
2023/10/06 06:25:04;;;;;;;;;;;;;;;;;;6308772;28;19912;-91
2023/10/06 06:28:05;;;;;;;;;;;;;;;;;;6334906;28;20023;-92
2023/10/06 06:31:07;;;;;;;;;;;;;;;;;;6319231;28;19934;-87
2023/10/06 06:34:07;;;;;;;;;;;;;;;;;;6326435;28;19919;-89
2023/10/06 06:37:09;;;;;;;;;;;;;;;;;;6331408;28;19915;-88
2023/10/06 06:40:15;;;;;;;;;;;;;;;;;;6328315;28;19922;-89
2023/10/06 06:43:19;;;;;;;;;;;;;;;;;;6338094;28;19923;-88
2023/10/06 06:46:20;;;;;;;;;;;;;;;;;;6334008;28;20476;-88
2023/10/06 06:49:20;;;;;;;;;;;;;;;;;;6318163;28;19916;-87
2023/10/06 06:52:21;;;;;;;;;;;;;;;;;;6314471;28;19922;-87
2023/10/06 06:55:22;;;;;;;;;;;;;;;;;;6316536;28;19916;-86
2023/10/06 06:58:22;;;;;;;;;;;;;;;;;;6310307;28;20372;-81
2023/10/06 07:01:23;;;;;;;;;;;;;;;;;;6292520;28;19912;-82
2023/10/06 07:04:26;;;;;;;;;;;;;;;;;;6298938;28;20010;-82
2023/10/06 07:07:26;;;;;;;;;;;;;;;;;;6280682;28;20007;-82
2023/10/06 07:10:26;;;;;;;;;;;;;;;;;;6293765;28;19916;-81
2023/10/06 07:13:26;;;;;;;;;;;;;;;;;;6292442;28;20030;-82
2023/10/06 07:16:26;;;;;;;;;;;;;;;;;;6309955;28;20037;-82
2023/10/06 07:19:26;;;;;;;;;;;;;;;;;;6305128;28;19963;-81
2023/10/06 07:22:31;;;;;;;;;;;;;;;;;;6290787;28;20366;-82
2023/10/06 07:25:31;;;;;;;;;;;;;;;;;;6287150;28;20440;-82
2023/10/06 07:28:31;;;;;;;;;;;;;;;;;;6279769;28;20007;-82
2023/10/06 07:31:32;;;;;;;;;;;;;;;;;;6283572;28;20402;-82
2023/10/06 07:34:32;;;;;;;;;;;;;;;;;;6302989;28;20025;-82
2023/10/06 07:37:33;;;;;;;;;;;;;;;;;;6307682;28;20294;-81
2023/10/06 07:40:33;;;;;;;;;;;;;;;;;;6281422;28;19926;-82
2023/10/06 07:43:33;;;;;;;;;;;;;;;;;;6300188;28;19916;-81
2023/10/06 07:46:33;;;;;;;;;;;;;;;;;;6303690;28;19955;-82
2023/10/06 07:49:34;;;;;;;;;;;;;;;;;;6307885;28;20011;-82
2023/10/06 07:52:35;;;;;;;;;;;;;;;;;;6290860;28;19985;-81
2023/10/06 07:55:36;;;;;;;;;;;;;;;;;;6311794;28;19919;-81
2023/10/06 07:58:43;;;;;;;;;;;;;;;;;;6329280;28;20290;-81
2023/10/06 08:01:43;;;;;;;;;;;;;;;;;;6337125;28;19912;-81
2023/10/06 08:04:44;;;;;;;;;;;;;;;;;;6311911;28;20279;-81
2023/10/06 08:07:44;;;;;;;;;;;;;;;;;;6316142;28;19912;-82
2023/10/06 08:10:44;;;;;;;;;;;;;;;;;;6311528;28;19916;-82
2023/10/06 08:13:44;;;;;;;;;;;;;;;;;;6310072;28;19962;-81
2023/10/06 08:16:45;;;;;;;;;;;;;;;;;;6313804;28;19938;-81
2023/10/06 08:19:46;;;;;;;;;;;;;;;;;;6306140;28;19952;-82
2023/10/06 08:22:46;;;;;;;;;;;;;;;;;;6328186;28;19933;-81
2023/10/06 08:25:46;;;;;;;;;;;;;;;;;;6320815;28;19916;-81
2023/10/06 08:28:46;;;;;;;;;;;;;;;;;;6339087;27;20473;-81
2023/10/06 08:31:47;;;;;;;;;;;;;;;;;;6305128;28;19985;-82
2023/10/06 08:34:47;;;;;;;;;;;;;;;;;;6317924;28;19916;-82
2023/10/06 08:37:47;;;;;;;;;;;;;;;;;;6333702;28;19919;-81
2023/10/06 08:40:47;;;;;;;;;;;;;;;;;;6311320;28;19916;-81
2023/10/06 08:43:47;;;;;;;;;;;;;;;;;;6333674;28;19916;-81
2023/10/06 08:46:48;;;;;;;;;;;;;;;;;;6315080;28;19915;-82
2023/10/06 08:49:48;;;;;;;;;;;;;;;;;;6322851;27;20390;-82
2023/10/06 08:52:50;;;;;;;;;;;;;;;;;;6312122;28;19966;-81
2023/10/06 08:55:50;;;;;;;;;;;;;;;;;;6335514;28;19923;-82
2023/10/06 08:58:53;;;;;;;;;;;;;;;;;;6334328;27;19912;-81
2023/10/06 09:01:53;;;;;;;;;;;;;;;;;;6336467;27;19916;-81
2023/10/06 09:04:54;;;;;;;;;;;;;;;;;;6313891;28;19919;-81
2023/10/06 09:07:54;;;;;;;;;;;;;;;;;;6331563;28;20006;-81
2023/10/06 09:10:55;;;;;;;;;;;;;;;;;;6338483;28;19920;-81
2023/10/06 09:13:55;;;;;;;;;;;;;;;;;;6329884;28;20335;-81
2023/10/06 09:17:01;;;;;;;;;;;;;;;;;;6334548;28;19912;-80
2023/10/06 09:20:02;;;;;;;;;;;;;;;;;;6323245;28;19976;-81
2023/10/06 09:23:03;;;;;;;;;;;;;;;;;;6329465;28;19919;-80
2023/10/06 09:26:03;;;;;;;;;;;;;;;;;;6332322;28;19908;-81
2023/10/06 09:29:03;;;;;;;;;;;;;;;;;;6310248;28;19916;-81
2023/10/06 09:32:04;;;;;;;;;;;;;;;;;;6333238;28;19919;-81
2023/10/06 09:35:05;;;;;;;;;;;;;;;;;;6340859;27;20002;-81
2023/10/06 09:38:07;;;;;;;;;;;;;;;;;;6330410;28;19922;-81
2023/10/06 09:41:07;;;;;;;;;;;;;;;;;;6335042;28;19915;-81
2023/10/06 09:44:09;;;;;;;;;;;;;;;;;;6320782;28;19916;-81
2023/10/06 09:47:09;;;;;;;;;;;;;;;;;;6324285;28;20318;-80
2023/10/06 09:50:09;;;;;;;;;;;;;;;;;;6328009;28;19912;-81
2023/10/06 09:53:10;;;;;;;;;;;;;;;;;;6330402;28;19916;-82
2023/10/06 09:56:11;;;;;;;;;;;;;;;;;;6339282;28;19975;-81
2023/10/06 09:59:15;;;;;;;;;;;;;;;;;;6316988;28;19915;-81
2023/10/06 10:02:20;;;;;;;;;;;;;;;;;;6332269;28;19943;-82
2023/10/06 10:05:23;;;;;;;;;;;;;;;;;;6323552;28;20223;-81
2023/10/06 10:08:23;;;;;;;;;;;;;;;;;;6333796;28;19927;-82
2023/10/06 10:11:28;;;;;;;;;;;;;;;;;;6318777;27;20026;-81
2023/10/06 10:14:29;;;;;;;;;;;;;;;;;;6338402;28;19969;-81
2023/10/06 10:17:29;;;;;;;;;;;;;;;;;;6310607;28;19912;-82
2023/10/06 10:20:29;;;;;;;;;;;;;;;;;;6342479;28;19912;-82
2023/10/06 10:23:29;;;;;;;;;;;;;;;;;;6303183;28;19919;-82
2023/10/06 10:26:29;;;;;;;;;;;;;;;;;;6323035;28;19969;-82
2023/10/06 10:29:29;;;;;;;;;;;;;;;;;;6337771;27;19923;-81
2023/10/06 10:32:29;;;;;;;;;;;;;;;;;;6300163;28;19915;-80
2023/10/06 10:35:30;;;;;;;;;;;;;;;;;;6322819;28;19935;-80
2023/10/06 10:38:30;;;;;;;;;;;;;;;;;;6338638;28;19959;-81
2023/10/06 10:41:31;;;;;;;;;;;;;;;;;;6322023;28;20282;-81
2023/10/06 10:44:31;;;;;;;;;;;;;;;;;;6335776;28;19915;-82
2023/10/06 10:47:31;;;;;;;;;;;;;;;;;;6306783;28;19916;-81
2023/10/06 10:50:32;;;;;;;;;;;;;;;;;;6329767;27;19920;-82
2023/10/06 10:53:33;;;;;;;;;;;;;;;;;;6308731;28;20335;-82
2023/10/06 10:56:43;;;;;;;;;;;;;;;;;;6327172;28;19973;-82
2023/10/06 10:59:43;;;;;;;;;;;;;;;;;;6322154;28;19923;-82
2023/10/06 11:02:44;;;;;;;;;;;;;;;;;;6316211;28;19912;-81
2023/10/06 11:05:44;;;;;;;;;;;;;;;;;;6330188;28;20286;-82
2023/10/06 11:08:46;;;;;;;;;;;;;;;;;;6329551;28;20386;-81
2023/10/06 11:11:46;;;;;;;;;;;;;;;;;;6313202;28;19924;-82
2023/10/06 11:14:49;;;;;;;;;;;;;;;;;;6306628;28;20412;-82
2023/10/06 11:17:49;;;;;;;;;;;;;;;;;;6318160;28;20010;-82
2023/10/06 11:20:49;;;;;;;;;;;;;;;;;;6324878;28;19965;-82
2023/10/06 11:23:50;;;;;;;;;;;;;;;;;;6335114;28;19912;-82
2023/10/06 11:26:51;;;;;;;;;;;;;;;;;;6324889;28;19908;-82
2023/10/06 11:29:58;;;;;;;;;;;;;;;;;;6335526;28;19920;-82
2023/10/06 11:32:58;;;;;;;;;;;;;;;;;;6336052;28;19912;-82
2023/10/06 11:36:00;;;;;;;;;;;;;;;;;;6337386;28;20357;-82
2023/10/06 11:39:00;;;;;;;;;;;;;;;;;;6324347;28;19917;-82
2023/10/06 11:42:00;;;;;;;;;;;;;;;;;;6316658;27;19923;-82
2023/10/06 11:45:06;;;;;;;;;;;;;;;;;;6312872;28;19916;-82
2023/10/06 11:48:06;;;;;;;;;;;;;;;;;;6334953;28;20255;-82
2023/10/06 11:51:06;;;;;;;;;;;;;;;;;;6319186;28;20498;-82
2023/10/06 11:54:06;;;;;;;;;;;;;;;;;;6323522;28;19947;-82
2023/10/06 11:57:08;;;;;;;;;;;;;;;;;;6323732;28;20556;-82
2023/10/06 12:00:12;;;;;;;;;;;;;;;;;;6339955;28;19915;-82
2023/10/06 12:03:12;;;;;;;;;;;;;;;;;;6333277;27;19923;-81
2023/10/06 12:06:12;;;;;;;;;;;;;;;;;;6319102;27;20360;-82
2023/10/06 12:09:13;;;;;;;;;;;;;;;;;;6335133;28;19912;-82
2023/10/06 12:12:15;;;;;;;;;;;;;;;;;;6320264;28;19917;-81
2023/10/06 12:15:15;;;;;;;;;;;;;;;;;;6332584;28;19912;-82
2023/10/06 12:18:15;;;;;;;;;;;;;;;;;;6314600;28;19914;-82
2023/10/06 12:21:15;;;;;;;;;;;;;;;;;;6321494;28;20445;-82
2023/10/06 12:24:15;;;;;;;;;;;;;;;;;;6311771;28;19952;-82
2023/10/06 12:27:17;;;;;;;;;;;;;;;;;;6329851;27;19959;-82
2023/10/06 12:30:17;;;;;;;;;;;;;;;;;;6326810;28;19915;-82
2023/10/06 12:33:18;;;;;;;;;;;;;;;;;;6309293;28;19912;-82
2023/10/06 12:36:19;;;;;;;;;;;;;;;;;;6309825;28;19916;-82
2023/10/06 12:39:34;;;;;;;;;;;;;;;;;;6316686;28;20271;-82
2023/10/06 12:42:34;;;;;;;;;;;;;;;;;;6327701;28;20572;-82
2023/10/06 12:45:34;;;;;;;;;;;;;;;;;;6331467;28;19955;-82
2023/10/06 12:48:38;;;;;;;;;;;;;;;;;;6326382;28;19926;-82
2023/10/06 12:51:38;;;;;;;;;;;;;;;;;;6302275;28;20413;-81
2023/10/06 12:54:39;;;;;;;;;;;;;;;;;;6328959;28;19912;-81
2023/10/06 12:57:40;;;;;;;;;;;;;;;;;;6320150;28;19924;-82
2023/10/06 13:00:40;;;;;;;;;;;;;;;;;;6328944;28;19922;-82
2023/10/06 13:03:41;;;;;;;;;;;;;;;;;;6325968;28;19951;-82
2023/10/06 13:06:41;;;;;;;;;;;;;;;;;;6314907;28;19923;-81
2023/10/06 13:09:41;;;;;;;;;;;;;;;;;;6329401;28;20003;-82
2023/10/06 13:12:41;;;;;;;;;;;;;;;;;;6310057;28;19920;-81
2023/10/06 13:15:41;;;;;;;;;;;;;;;;;;6314157;28;20290;-82
2023/10/06 13:18:41;;;;;;;;;;;;;;;;;;6336287;28;20066;-81
2023/10/06 13:21:42;;;;;;;;;;;;;;;;;;6324297;28;19954;-82
2023/10/06 13:24:42;;;;;;;;;;;;;;;;;;6315098;28;19914;-82
2023/10/06 13:27:47;;;;;;;;;;;;;;;;;;6325297;28;20015;-82
2023/10/06 13:30:47;;;;;;;;;;;;;;;;;;6339715;28;19927;-82
2023/10/06 13:33:47;;;;;;;;;;;;;;;;;;6311641;28;19955;-82
2023/10/06 13:36:47;;;;;;;;;;;;;;;;;;6303400;28;19908;-82
2023/10/06 13:39:47;;;;;;;;;;;;;;;;;;6310979;28;19907;-82
2023/10/06 13:42:48;;;;;;;;;;;;;;;;;;6324469;28;19908;-82
2023/10/06 13:45:48;;;;;;;;;;;;;;;;;;6326402;28;19916;-81
2023/10/06 13:48:48;;;;;;;;;;;;;;;;;;6330715;28;19915;-81
2023/10/06 13:51:49;;;;;;;;;;;;;;;;;;6324562;28;19916;-82
2023/10/06 13:54:49;;;;;;;;;;;;;;;;;;6300022;28;19919;-82
2023/10/06 13:57:53;;;;;;;;;;;;;;;;;;6318356;28;19924;-87
2023/10/06 14:00:56;;;;;;;;;;;;;;;;;;6314160;28;19908;-87
2023/10/06 14:03:57;;;;;;;;;;;;;;;;;;6343340;28;19923;-87
2023/10/06 14:06:57;;;;;;;;;;;;;;;;;;6318438;28;20381;-88
2023/10/06 14:09:58;;;;;;;;;;;;;;;;;;6321872;28;19920;-88
2023/10/06 14:13:02;;;;;;;;;;;;;;;;;;6327065;28;19919;-88
2023/10/06 14:19:02;;;;;;;;;;;;;;;;;;6331271;28;19925;-87
2023/10/06 14:22:02;;;;;;;;;;;;;;;;;;6327756;28;20354;-87
2023/10/06 14:25:03;;;;;;;;;;;;;;;;;;6320673;28;20464;-88
2023/10/06 14:28:03;;;;;;;;;;;;;;;;;;6312134;28;19908;-88
2023/10/06 14:34:46;;;;;;;;;;;;;;;;;;6330649;28;19998;-88
2023/10/06 14:38:04;;;;;;;;;;;;;;;;;;6334270;28;19912;-88
2023/10/06 14:47:38;;;;;;;;;;;;;;;;;;6320083;28;19912;-89
2023/10/06 14:50:38;;;;;;;;;;;;;;;;;;6313526;28;19938;-88
2023/10/06 14:53:39;;;;;;;;;;;;;;;;;;6309403;28;20409;-89
2023/10/06 14:56:39;;;;;;;;;;;;;;;;;;6329755;28;19930;-89
2023/10/06 14:59:41;;;;;;;;;;;;;;;;;;6328230;28;19911;-88
2023/10/06 15:02:47;;;;;;;;;;;;;;;;;;6333172;28;19961;-88
2023/10/06 15:05:48;;;;;;;;;;;;;;;;;;6309061;28;19912;-89
2023/10/06 15:08:50;;;;;;;;;;;;;;;;;;6315953;28;20392;-83
2023/10/06 15:11:51;;;;;;;;;;;;;;;;;;6312075;28;20480;-83
2023/10/06 15:14:53;;;;;;;;;;;;;;;;;;6315549;28;20355;-83
2023/10/06 15:17:55;;;;;;;;;;;;;;;;;;6321798;28;19915;-82
2023/10/06 15:20:55;;;;;;;;;;;;;;;;;;6312718;28;20045;-82
2023/10/06 15:23:55;;;;;;;;;;;;;;;;;;6334735;28;20266;-82
2023/10/06 15:26:55;;;;;;;;;;;;;;;;;;6315769;28;19908;-83
2023/10/06 15:29:55;;;;;;;;;;;;;;;;;;6330007;28;19972;-83
2023/10/06 15:32:56;;;;;;;;;;;;;;;;;;6323686;28;19962;-82
2023/10/06 15:35:56;;;;;;;;;;;;;;;;;;6329052;28;19911;-82
2023/10/06 15:38:56;;;;;;;;;;;;;;;;;;6302319;28;19957;-82
2023/10/06 15:41:56;;;;;;;;;;;;;;;;;;6318226;28;19989;-83
2023/10/06 15:44:57;;;;;;;;;;;;;;;;;;6318418;28;19958;-80
2023/10/06 15:47:57;;;;;;;;;;;;;;;;;;6316493;28;19980;-81
2023/10/06 15:50:57;;;;;;;;;;;;;;;;;;6326371;28;19923;-81
2023/10/06 15:53:57;;;;;;;;;;;;;;;;;;6308810;28;19913;-80
2023/10/06 15:56:59;;;;;;;;;;;;;;;;;;6319087;28;19973;-81
2023/10/06 15:59:59;;;;;;;;;;;;;;;;;;6324865;28;20321;-81
2023/10/06 16:03:02;;;;;;;;;;;;;;;;;;6319140;28;19968;-80
2023/10/06 16:06:04;;;;;;;;;;;;;;;;;;6308220;28;20335;-79
2023/10/06 16:09:15;;;;;;;;;;;;;;;;;;6303252;28;19912;-81
2023/10/06 16:12:17;;;;;;;;;;;;;;;;;;6315191;28;19951;-81
2023/10/06 16:15:18;;;;;;;;;;;;;;;;;;6332806;28;19908;-81
2023/10/06 16:18:18;;;;;;;;;;;;;;;;;;6309169;28;20457;-81
2023/10/06 16:21:18;;;;;;;;;;;;;;;;;;6328016;28;19911;-80
2023/10/06 16:24:18;;;;;;;;;;;;;;;;;;6306467;28;19916;-81
2023/10/06 16:27:19;;;;;;;;;;;;;;;;;;6309217;28;19912;-80
2023/10/06 16:30:22;;;;;;;;;;;;;;;;;;6327741;28;19943;-79
2023/10/06 16:33:22;;;;;;;;;;;;;;;;;;6340477;28;19954;-82
2023/10/06 16:36:23;;;;;;;;;;;;;;;;;;6310631;28;20298;-82
2023/10/06 16:39:23;;;;;;;;;;;;;;;;;;6335735;28;20415;-82
2023/10/06 16:42:24;;;;;;;;;;;;;;;;;;6306768;28;19912;-81
2023/10/06 16:45:24;;;;;;;;;;;;;;;;;;6331623;28;19919;-80
2023/10/06 16:48:24;;;;;;;;;;;;;;;;;;6307253;28;19912;-80
2023/10/06 16:51:24;;;;;;;;;;;;;;;;;;6316751;27;19916;-80
2023/10/06 16:54:25;;;;;;;;;;;;;;;;;;6325253;27;19919;-80
2023/10/06 16:57:25;;;;;;;;;;;;;;;;;;6325886;28;19928;-80
2023/10/06 17:00:25;;;;;;;;;;;;;;;;;;6318140;28;20020;-80
2023/10/06 17:03:31;;;;;;;;;;;;;;;;;;6337577;28;20288;-80
2023/10/06 17:06:32;;;;;;;;;;;;;;;;;;6331121;28;19923;-80
2023/10/06 17:09:36;;;;;;;;;;;;;;;;;;6333223;28;19920;-80
2023/10/06 17:12:37;;;;;;;;;;;;;;;;;;6323354;28;19920;-80
2023/10/06 17:15:39;;;;;;;;;;;;;;;;;;6309628;28;19960;-82
2023/10/06 17:18:41;;;;;;;;;;;;;;;;;;6328845;28;20339;-80
2023/10/06 17:21:42;;;;;;;;;;;;;;;;;;6329065;28;20314;-81
2023/10/06 17:24:43;;;;;;;;;;;;;;;;;;6318392;28;19912;-81
2023/10/06 17:27:46;;;;;;;;;;;;;;;;;;6335636;28;19965;-81
2023/10/06 17:30:48;;;;;;;;;;;;;;;;;;6318541;28;20410;-81
2023/10/06 17:33:51;;;;;;;;;;;;;;;;;;6334333;28;19912;-81
2023/10/06 17:36:51;;;;;;;;;;;;;;;;;;6305416;28;19919;-80
2023/10/06 17:39:52;;;;;;;;;;;;;;;;;;6331092;28;19975;-81
2023/10/06 17:42:54;;;;;;;;;;;;;;;;;;6327673;28;19912;-81
2023/10/06 17:45:55;;;;;;;;;;;;;;;;;;6328440;28;19916;-81
2023/10/06 17:48:56;;;;;;;;;;;;;;;;;;6306796;28;20392;-80
2023/10/06 17:51:57;;;;;;;;;;;;;;;;;;6331878;28;19920;-80
2023/10/06 17:54:57;;;;;;;;;;;;;;;;;;6322158;28;20011;-80
2023/10/06 17:57:57;;;;;;;;;;;;;;;;;;6307469;28;20342;-81
2023/10/06 18:00:57;;;;;;;;;;;;;;;;;;6317014;28;19923;-81
2023/10/06 18:03:58;;;;;;;;;;;;;;;;;;6334042;28;19916;-81
2023/10/06 18:06:58;;;;;;;;;;;;;;;;;;6322941;28;19912;-81
2023/10/06 18:09:59;;;;;;;;;;;;;;;;;;6307523;28;19916;-82
2023/10/06 18:12:59;;;;;;;;;;;;;;;;;;6324678;27;19923;-81
2023/10/06 18:15:59;;;;;;;;;;;;;;;;;;6316097;28;20006;-82
2023/10/06 18:19:02;;;;;;;;;;;;;;;;;;6332445;28;19916;-82
2023/10/06 18:22:02;;;;;;;;;;;;;;;;;;6332420;28;19911;-81
2023/10/06 18:25:03;;;;;;;;;;;;;;;;;;6325868;28;19912;-81
2023/10/06 18:28:04;;;;;;;;;;;;;;;;;;6328420;28;20437;-81
2023/10/06 18:31:04;;;;;;;;;;;;;;;;;;6327337;28;20370;-81
2023/10/06 18:34:04;;;;;;;;;;;;;;;;;;6309744;28;20285;-81
2023/10/06 18:37:05;;;;;;;;;;;;;;;;;;6325790;28;20358;-82
2023/10/06 18:40:05;;;;;;;;;;;;;;;;;;6336650;28;19916;-80
2023/10/06 18:43:06;;;;;;;;;;;;;;;;;;6316360;28;20098;-81
2023/10/06 18:46:09;;;;;;;;;;;;;;;;;;6321395;28;19919;-81
2023/10/06 18:49:10;;;;;;;;;;;;;;;;;;6323956;28;19948;-81
2023/10/06 18:52:11;;;;;;;;;;;;;;;;;;6322730;28;19953;-81
2023/10/06 18:55:12;;;;;;;;;;;;;;;;;;6304427;28;19955;-82
2023/10/06 18:58:14;;;;;;;;;;;;;;;;;;6306308;28;19940;-81
2023/10/06 19:01:14;;;;;;;;;;;;;;;;;;6328654;28;19948;-81
2023/10/06 19:04:14;;;;;;;;;;;;;;;;;;6308090;28;19988;-82
2023/10/06 19:07:16;;;;;;;;;;;;;;;;;;6313312;28;19943;-81
2023/10/06 19:10:16;;;;;;;;;;;;;;;;;;6330451;28;20003;-81
2023/10/06 19:13:17;;;;;;;;;;;;;;;;;;6310898;28;20266;-81
2023/10/06 19:16:19;;;;;;;;;;;;;;;;;;6317335;28;19912;-82
2023/10/06 19:19:19;;;;;;;;;;;;;;;;;;6316187;28;20270;-81
2023/10/06 19:22:20;;;;;;;;;;;;;;;;;;6307067;28;19920;-81
2023/10/06 19:25:20;;;;;;;;;;;;;;;;;;6299975;28;19912;-81
2023/10/06 19:28:20;;;;;;;;;;;;;;;;;;6335158;28;19955;-81
2023/10/06 19:31:20;;;;;;;;;;;;;;;;;;6325921;28;19932;-81
2023/10/06 19:34:22;;;;;;;;;;;;;;;;;;6321984;28;20010;-81
2023/10/06 19:37:23;;;;;;;;;;;;;;;;;;6324220;28;20376;-81
2023/10/06 19:40:23;;;;;;;;;;;;;;;;;;6319764;28;19912;-82
2023/10/06 19:43:24;;;;;;;;;;;;;;;;;;6321096;28;19961;-82
2023/10/06 19:46:24;;;;;;;;;;;;;;;;;;6305079;28;19916;-81
2023/10/06 19:49:25;;;;;;;;;;;;;;;;;;6323857;28;19992;-80
2023/10/06 19:52:25;;;;;;;;;;;;;;;;;;6334305;28;20032;-83
2023/10/06 19:55:26;;;;;;;;;;;;;;;;;;6308665;28;19916;-81
2023/10/06 19:58:27;;;;;;;;;;;;;;;;;;6321216;28;19959;-82
2023/10/06 20:01:27;;;;;;;;;;;;;;;;;;6335976;28;19976;-82
2023/10/06 20:04:27;;;;;;;;;;;;;;;;;;6322365;28;20364;-82
2023/10/06 20:07:29;;;;;;;;;;;;;;;;;;6322390;28;20444;-82
2023/10/06 20:10:32;;;;;;;;;;;;;;;;;;6328725;27;19915;-82
2023/10/06 20:13:33;;;;;;;;;;;;;;;;;;6338780;28;19919;-82
2023/10/06 20:16:34;;;;;;;;;;;;;;;;;;6329631;28;19912;-82
2023/10/06 20:19:34;;;;;;;;;;;;;;;;;;6338959;28;19973;-82
2023/10/06 20:22:37;;;;;;;;;;;;;;;;;;6327056;28;19916;-82
2023/10/06 20:25:37;;;;;;;;;;;;;;;;;;6311752;28;19919;-82
2023/10/06 20:28:37;;;;;;;;;;;;;;;;;;6339436;28;19907;-82
2023/10/06 20:31:40;;;;;;;;;;;;;;;;;;6311403;28;20259;-80
2023/10/06 20:34:40;;;;;;;;;;;;;;;;;;6335465;28;19918;-82
2023/10/06 20:37:40;;;;;;;;;;;;;;;;;;6326450;28;19911;-83
2023/10/06 20:40:42;;;;;;;;;;;;;;;;;;6344427;28;20257;-83
2023/10/06 20:43:42;;;;;;;;;;;;;;;;;;6332869;28;20011;-82
2023/10/06 20:46:43;;;;;;;;;;;;;;;;;;6306481;28;20330;-81
2023/10/06 20:49:43;;;;;;;;;;;;;;;;;;6333553;28;19919;-81
2023/10/06 20:52:43;;;;;;;;;;;;;;;;;;6337431;28;19919;-83